createdAt,value
2023-04-24T00:00:58.613Z,100016.13
2023-04-24T00:03:32.564Z,100010.55
2023-04-24T00:06:06.530Z,100011.09
2023-04-24T00:08:41.569Z,100006.20
2023-04-24T00:11:15.075Z,100008.73
2023-04-24T00:13:48.492Z,100006.36
2023-04-24T00:16:21.725Z,100003.28
2023-04-24T00:18:54.672Z,100003.68
2023-04-24T00:21:27.701Z,100003.02
2023-04-24T00:24:01.095Z,100001.30
2023-04-24T00:26:34.450Z,100003.02
2023-04-24T00:29:08.040Z,100001.61
2023-04-24T00:31:42.045Z,100003.52
2023-04-24T00:34:15.147Z,100004.34
2023-04-24T00:36:50.368Z,100008.61
2023-04-24T00:39:24.266Z,100007.22
2023-04-24T00:41:58.168Z,100005.81
2023-04-24T00:44:31.563Z,100010.55
2023-04-24T00:47:05.007Z,100004.13
2023-04-24T00:49:38.311Z,100010.55
2023-04-24T00:52:12.102Z,100011.56
2023-04-24T00:54:46.499Z,100011.27
2023-04-24T00:57:18.813Z,100013.56
2023-04-24T00:59:51.522Z,100008.89
2023-04-24T01:02:26.022Z,100008.77
2023-04-24T01:04:59.111Z,100006.89
2023-04-24T01:07:32.992Z,100009.97
2023-04-24T01:10:08.209Z,100012.57
2023-04-24T01:12:42.042Z,100000.98
2023-04-24T01:15:17.540Z,100006.77
2023-04-24T01:17:51.292Z,100012.78
2023-04-24T01:20:24.520Z,100001.56
2023-04-24T01:22:58.603Z,100006.77
2023-04-24T01:25:31.590Z,100007.66
2023-04-24T01:28:05.504Z,100010.56
2023-04-24T01:30:38.867Z,100018.66
2023-04-24T01:33:11.970Z,100016.33
2023-04-24T01:35:45.776Z,100017.16
2023-04-24T01:38:20.239Z,100012.95
2023-04-24T01:40:53.941Z,100009.05
2023-04-24T01:43:27.502Z,100010.77
2023-04-24T01:46:02.225Z,100008.06
2023-04-24T01:48:37.557Z,100010.48
2023-04-24T01:51:10.473Z,100003.99
2023-04-24T01:53:43.745Z,100005.19
2023-04-24T01:56:17.568Z,100002.39
2023-04-24T01:58:54.865Z,100010.56
2023-04-24T02:01:28.074Z,100007.07
2023-04-24T02:04:01.302Z,100010.35
2023-04-24T02:06:34.402Z,100022.97
2023-04-24T02:09:07.712Z,100028.44
2023-04-24T02:11:40.826Z,100022.66
2023-04-24T02:14:14.005Z,100028.27
2023-04-24T02:16:47.157Z,100031.65
2023-04-24T02:19:20.308Z,100032.63
2023-04-24T02:21:55.263Z,100039.91
2023-04-24T02:24:28.178Z,100033.21
2023-04-24T02:27:01.339Z,100024.63
2023-04-24T02:29:35.096Z,100023.23
2023-04-24T02:32:08.125Z,100021.41
2023-04-24T02:34:42.125Z,100027.13
2023-04-24T02:37:15.293Z,100027.50
2023-04-24T02:39:49.179Z,100026.80
2023-04-24T02:42:22.161Z,100025.00
2023-04-24T02:44:55.295Z,100036.38
2023-04-24T02:47:28.550Z,100036.48
2023-04-24T02:50:01.619Z,100036.10
2023-04-24T02:52:34.736Z,100036.80
2023-04-24T02:55:09.284Z,100034.51
2023-04-24T02:57:42.826Z,100038.72
2023-04-24T03:00:17.102Z,100039.29
2023-04-24T03:02:51.133Z,100036.42
2023-04-24T03:05:25.816Z,100026.34
2023-04-24T03:07:59.089Z,100028.33
2023-04-24T03:10:33.598Z,100031.34
2023-04-24T03:13:05.556Z,100034.25
2023-04-24T03:15:40.420Z,100027.37
2023-04-24T03:18:13.496Z,100030.28
2023-04-24T03:20:48.658Z,100029.08
2023-04-24T03:23:21.867Z,100035.27
2023-04-24T03:25:56.195Z,100043.95
2023-04-24T03:28:29.153Z,100042.66
2023-04-24T03:31:05.196Z,100043.95
2023-04-24T03:33:40.218Z,100044.56
2023-04-24T03:36:13.503Z,100048.77
2023-04-24T03:38:46.976Z,100054.27
2023-04-24T03:41:31.480Z,100056.56
2023-04-24T03:44:18.161Z,100057.97
2023-04-24T03:46:51.189Z,100062.55
2023-04-24T03:49:24.791Z,100056.36
2023-04-24T03:51:58.019Z,100064.26
2023-04-24T03:54:31.384Z,100067.95
2023-04-24T03:57:06.085Z,100072.05
2023-04-24T03:59:39.776Z,100073.34
2023-04-24T04:02:17.398Z,100078.88
2023-04-24T04:04:50.792Z,100078.66
2023-04-24T04:07:24.039Z,100075.77
2023-04-24T04:09:57.133Z,100083.25
2023-04-24T04:12:30.316Z,100082.47
2023-04-24T04:15:04.376Z,100076.34
2023-04-24T04:17:39.382Z,100070.86
2023-04-24T04:20:13.095Z,100065.55
2023-04-24T04:22:46.530Z,100065.25
2023-04-24T04:25:21.385Z,100068.72
2023-04-24T04:27:55.075Z,100067.12
2023-04-24T04:30:30.516Z,100063.07
2023-04-24T04:33:05.384Z,100057.75
2023-04-24T04:35:39.085Z,100058.01
2023-04-24T04:38:12.630Z,100060.58
2023-04-24T04:40:51.103Z,100056.26
2023-04-24T04:43:25.479Z,100062.41
2023-04-24T04:46:02.171Z,100072.51
2023-04-24T04:48:39.764Z,100069.16
2023-04-24T04:51:12.791Z,100069.73
2023-04-24T04:53:46.169Z,100068.05
2023-04-24T04:56:19.278Z,100076.52
2023-04-24T04:58:52.312Z,100074.80
2023-04-24T05:01:26.874Z,100067.75
2023-04-24T05:04:00.899Z,100065.37
2023-04-24T05:06:35.758Z,100063.86
2023-04-24T05:09:10.937Z,100058.21
2023-04-24T05:11:51.417Z,100058.66
2023-04-24T05:14:24.723Z,100052.77
2023-04-24T05:16:57.914Z,100047.95
2023-04-24T05:19:33.110Z,100047.59
2023-04-24T05:22:08.050Z,100046.23
2023-04-24T05:24:42.709Z,100042.53
2023-04-24T05:27:23.758Z,100040.17
2023-04-24T05:29:56.890Z,100037.62
2023-04-24T05:32:29.925Z,100038.88
2023-04-24T05:35:03.051Z,100035.34
2023-04-24T05:37:36.150Z,100043.38
2023-04-24T05:40:10.702Z,100045.83
2023-04-24T05:42:43.949Z,100052.60
2023-04-24T05:45:18.044Z,100051.23
2023-04-24T05:47:52.513Z,100052.34
2023-04-24T05:50:25.635Z,100046.64
2023-04-24T05:53:03.402Z,100041.58
2023-04-24T05:55:39.131Z,100031.50
2023-04-24T05:58:13.124Z,100036.04
2023-04-24T06:00:47.746Z,100031.05
2023-04-24T06:03:20.805Z,100027.52
2023-04-24T06:05:54.630Z,100035.44
2023-04-24T06:08:28.140Z,100028.17
2023-04-24T06:11:03.914Z,100027.02
2023-04-24T06:13:36.536Z,100036.07
2023-04-24T06:16:20.371Z,100034.42
2023-04-24T06:18:56.878Z,100024.86
2023-04-24T06:21:30.465Z,100034.08
2023-04-24T06:24:03.658Z,100031.27
2023-04-24T06:26:38.376Z,100025.97
2023-04-24T06:29:12.602Z,100025.08
2023-04-24T06:31:45.602Z,100022.92
2023-04-24T06:34:18.647Z,100020.96
2023-04-24T06:36:51.646Z,100027.23
2023-04-24T06:39:24.808Z,100024.41
2023-04-24T06:41:57.828Z,100021.56
2023-04-24T06:44:31.106Z,100019.11
2023-04-24T06:47:04.030Z,100027.63
2023-04-24T06:49:39.071Z,100023.81
2023-04-24T06:52:12.051Z,100023.22
2023-04-24T06:54:45.076Z,100027.51
2023-04-24T06:57:18.153Z,100021.53
2023-04-24T06:59:50.909Z,100013.39
2023-04-24T07:02:23.882Z,100015.20
2023-04-24T07:04:56.723Z,100023.13
2023-04-24T07:07:29.847Z,100025.18
2023-04-24T07:10:05.012Z,100026.55
2023-04-24T07:12:38.813Z,100027.42
2023-04-24T07:15:12.850Z,100027.97
2023-04-24T07:17:46.482Z,100020.45
2023-04-24T07:20:19.555Z,100021.66
2023-04-24T07:22:53.114Z,100013.77
2023-04-24T07:25:26.367Z,100012.36
2023-04-24T07:27:59.883Z,100012.75
2023-04-24T07:30:34.402Z,100008.91
2023-04-24T07:33:08.216Z,100004.53
2023-04-24T07:35:41.486Z,100007.11
2023-04-24T07:38:14.377Z,99997.81
2023-04-24T07:40:48.754Z,99992.63
2023-04-24T07:43:24.937Z,99995.92
2023-04-24T07:45:58.071Z,99998.05
2023-04-24T07:48:31.345Z,99993.02
2023-04-24T07:51:04.338Z,99994.26
2023-04-24T07:53:37.440Z,99992.47
2023-04-24T07:56:10.310Z,99992.70
2023-04-24T07:58:43.222Z,99995.20
2023-04-24T08:01:16.036Z,99990.59
2023-04-24T08:03:49.371Z,99991.34
2023-04-24T08:06:22.350Z,99984.78
2023-04-24T08:08:55.260Z,99979.48
2023-04-24T08:11:28.807Z,99976.41
2023-04-24T08:14:02.046Z,99967.53
2023-04-24T08:16:36.287Z,99969.51
2023-04-24T08:19:08.300Z,99966.16
2023-04-24T08:21:40.953Z,99961.67
2023-04-24T08:24:14.158Z,99961.38
2023-04-24T08:26:47.042Z,99961.98
2023-04-24T08:29:20.172Z,99956.19
2023-04-24T08:31:53.168Z,99948.37
2023-04-24T08:34:26.742Z,99950.63
2023-04-24T08:36:59.641Z,99949.32
2023-04-24T08:39:33.161Z,99943.65
2023-04-24T08:42:08.556Z,99952.22
2023-04-24T08:44:41.587Z,99958.92
2023-04-24T08:47:16.265Z,99954.79
2023-04-24T08:49:51.463Z,99951.72
2023-04-24T08:52:25.187Z,99956.28
2023-04-24T08:54:58.729Z,99951.45
2023-04-24T08:57:32.346Z,99947.11
2023-04-24T09:00:08.226Z,99944.78
2023-04-24T09:02:49.873Z,99935.89
2023-04-24T09:05:28.554Z,99937.52
2023-04-24T09:08:03.177Z,99939.20
2023-04-24T09:10:37.670Z,99937.45
2023-04-24T09:13:11.701Z,99934.21
2023-04-24T09:15:45.272Z,99931.45
2023-04-24T09:18:18.080Z,99929.85
2023-04-24T09:21:08.777Z,99919.88
2023-04-24T09:23:42.119Z,99927.15
2023-04-24T09:26:16.219Z,99920.55
2023-04-24T09:28:49.227Z,99921.75
2023-04-24T09:31:24.095Z,99921.86
2023-04-24T09:34:08.457Z,99923.13
2023-04-24T09:36:43.734Z,99915.18
2023-04-24T09:39:18.708Z,99923.41
2023-04-24T09:41:59.154Z,99919.72
2023-04-24T09:44:32.204Z,99913.96
2023-04-24T09:47:05.256Z,99914.05
2023-04-24T09:49:40.119Z,99908.69
2023-04-24T09:52:14.095Z,99906.33
2023-04-24T09:54:51.704Z,99906.64
2023-04-24T09:57:24.647Z,99906.56
2023-04-24T09:59:57.374Z,99899.29
2023-04-24T10:02:30.874Z,99905.27
2023-04-24T10:05:03.785Z,99902.43
2023-04-24T10:07:37.124Z,99901.41
2023-04-24T10:10:10.539Z,99899.02
2023-04-24T10:12:43.802Z,99898.66
2023-04-24T10:15:19.007Z,99893.05
2023-04-24T10:17:56.337Z,99898.89
2023-04-24T10:20:34.755Z,99900.41
2023-04-24T10:23:08.077Z,99899.72
2023-04-24T10:25:41.150Z,99904.23
2023-04-24T10:28:14.107Z,99899.76
2023-04-24T10:30:47.226Z,99892.28
2023-04-24T10:33:20.739Z,99899.98
2023-04-24T10:35:54.565Z,99889.98
2023-04-24T10:38:29.002Z,99897.09
2023-04-24T10:41:14.704Z,99893.06
2023-04-24T10:43:50.023Z,99903.55
2023-04-24T10:46:23.959Z,99902.95
2023-04-24T10:48:57.983Z,99897.48
2023-04-24T10:51:55.872Z,99899.09
2023-04-24T10:54:38.323Z,99891.73
2023-04-24T10:57:32.169Z,99896.39
2023-04-24T11:00:23.219Z,99882.10
2023-04-24T11:02:56.778Z,99886.31
2023-04-24T11:05:55.107Z,99886.64
2023-04-24T11:08:31.740Z,99879.77
2023-04-24T11:11:11.675Z,99874.32
2023-04-24T11:14:02.015Z,99866.22
2023-04-24T11:16:56.894Z,99866.45
2023-04-24T11:19:30.122Z,99867.14
2023-04-24T11:22:05.226Z,99874.31
2023-04-24T11:24:52.536Z,99866.36
2023-04-24T11:27:27.046Z,99858.87
2023-04-24T11:30:04.930Z,99858.23
2023-04-24T11:32:41.106Z,99859.84
2023-04-24T11:35:24.713Z,99858.93
2023-04-24T11:40:32.943Z,99850.78
2023-04-24T11:43:08.261Z,99853.55
2023-04-24T11:45:41.702Z,99854.94
2023-04-24T11:48:14.481Z,99848.77
2023-04-24T11:50:49.229Z,99849.73
2023-04-24T11:53:23.487Z,99848.03
2023-04-24T11:55:56.266Z,99844.19
2023-04-24T11:58:29.324Z,99845.95
2023-04-24T12:01:02.668Z,99835.31
2023-04-24T12:03:35.959Z,99835.29
2023-04-24T12:06:11.711Z,99834.41
2023-04-24T12:08:44.640Z,99827.39
2023-04-24T12:11:20.149Z,99830.85
2023-04-24T12:13:52.929Z,99829.03
2023-04-24T12:16:28.486Z,99820.16
2023-04-24T12:19:02.355Z,99817.42
2023-04-24T12:21:35.323Z,99816.95
2023-04-24T12:24:09.871Z,99813.43
2023-04-24T12:26:45.779Z,99807.36
2023-04-24T12:29:24.736Z,99807.88
2023-04-24T12:31:57.513Z,99811.17
2023-04-24T12:34:30.914Z,99810.13
2023-04-24T12:37:14.288Z,99801.50
2023-04-24T12:40:11.153Z,99796.34
2023-04-24T12:42:50.243Z,99796.03
2023-04-24T12:45:24.783Z,99794.34
2023-04-24T12:47:57.646Z,99790.89
2023-04-24T12:50:30.601Z,99792.34
2023-04-24T12:53:03.780Z,99793.31
2023-04-24T12:55:37.364Z,99787.14
2023-04-24T12:58:10.752Z,99785.36
2023-04-24T13:00:44.846Z,99784.50
2023-04-24T13:03:18.028Z,99782.70
2023-04-24T13:05:50.966Z,99775.11
2023-04-24T13:08:24.131Z,99772.45
2023-04-24T13:10:56.916Z,99769.33
2023-04-24T13:13:29.886Z,99760.98
2023-04-24T13:16:02.939Z,99757.40
2023-04-24T13:18:35.903Z,99752.55
2023-04-24T13:21:08.863Z,99755.69
2023-04-24T13:23:42.758Z,99752.18
2023-04-24T13:26:16.166Z,99751.80
2023-04-24T13:28:49.096Z,99750.97
2023-04-24T13:31:22.216Z,99747.97
2023-04-24T13:33:55.763Z,99741.48
2023-04-24T13:36:28.796Z,99736.34
2023-04-24T13:39:01.677Z,99731.62
2023-04-24T13:41:37.515Z,99731.64
2023-04-24T13:44:10.619Z,99734.82
2023-04-24T13:46:45.790Z,99729.61
2023-04-24T13:49:19.213Z,99728.27
2023-04-24T13:51:52.499Z,99720.72
2023-04-24T13:54:27.347Z,99724.63
2023-04-24T13:57:02.452Z,99724.63
2023-04-24T13:59:35.386Z,99712.72
2023-04-24T14:02:08.828Z,99716.73
2023-04-24T14:04:41.997Z,99714.47
2023-04-24T14:07:15.308Z,99717.09
2023-04-24T14:09:48.262Z,99715.34
2023-04-24T14:12:22.208Z,99715.36
2023-04-24T14:14:55.094Z,99718.03
2023-04-24T14:17:28.246Z,99714.44
2023-04-24T14:20:01.739Z,99710.84
2023-04-24T14:22:34.991Z,99706.80
2023-04-24T14:25:09.042Z,99708.02
2023-04-24T14:27:41.267Z,99703.53
2023-04-24T14:30:16.607Z,99706.48
2023-04-24T14:32:51.057Z,99712.11
2023-04-24T14:35:24.617Z,99714.23
2023-04-24T14:37:58.099Z,99712.33
2023-04-24T14:40:52.799Z,99708.30
2023-04-24T14:43:07.665Z,99706.41
2023-04-24T14:45:42.647Z,99697.94
2023-04-24T14:48:17.270Z,99710.67
2023-04-24T14:50:50.517Z,99704.84
2023-04-24T14:53:23.692Z,99701.23
2023-04-24T14:55:57.256Z,99701.20
2023-04-24T14:58:30.389Z,99704.30
2023-04-24T15:01:03.288Z,99695.87
2023-04-24T15:03:36.361Z,99694.52
2023-04-24T15:06:09.533Z,99695.81
2023-04-24T15:08:43.357Z,99697.12
2023-04-24T15:11:16.322Z,99693.57
2023-04-24T15:13:49.452Z,99697.06
2023-04-24T15:16:22.510Z,99689.98
2023-04-24T15:18:55.640Z,99700.53
2023-04-24T15:21:28.637Z,99693.00
2023-04-24T15:24:01.945Z,99693.80
2023-04-24T15:26:35.426Z,99696.77
2023-04-24T15:29:08.452Z,99697.08
2023-04-24T15:31:41.528Z,99703.58
2023-04-24T15:34:14.776Z,99693.75
2023-04-24T15:36:47.775Z,99690.97
2023-04-24T15:39:22.400Z,99688.13
2023-04-24T15:41:55.589Z,99694.99
2023-04-24T15:44:28.645Z,99692.17
2023-04-24T15:47:03.457Z,99700.78
2023-04-24T15:49:36.186Z,99702.32
2023-04-24T15:52:11.220Z,99695.09
2023-04-24T15:54:44.436Z,99704.13
2023-04-24T15:57:17.529Z,99698.18
2023-04-24T15:59:50.917Z,99698.42
2023-04-24T16:02:23.962Z,99702.13
2023-04-24T16:04:57.247Z,99707.23
2023-04-24T16:07:30.206Z,99706.58
2023-04-24T16:10:03.231Z,99712.10
2023-04-24T16:12:36.390Z,99701.55
2023-04-24T16:15:10.280Z,99701.55
2023-04-24T16:17:44.324Z,99707.98
2023-04-24T16:20:17.306Z,99710.91
2023-04-24T16:22:50.325Z,99709.88
2023-04-24T16:25:23.621Z,99718.98
2023-04-24T16:27:57.291Z,99717.58
2023-04-24T16:30:30.175Z,99713.51
2023-04-24T16:33:04.758Z,99717.78
2023-04-24T16:35:39.178Z,99719.93
2023-04-24T16:38:12.335Z,99723.89
2023-04-24T16:40:45.877Z,99730.47
2023-04-24T16:43:20.031Z,99728.67
2023-04-24T16:45:53.303Z,99735.18
2023-04-24T16:48:26.049Z,99733.38
2023-04-24T16:50:58.929Z,99738.39
2023-04-24T16:53:31.911Z,99741.70
2023-04-24T16:56:05.527Z,99746.30
2023-04-24T16:58:39.454Z,99744.77
2023-04-24T17:01:13.010Z,99752.94
2023-04-24T17:03:47.094Z,99757.10
2023-04-24T17:06:20.165Z,99763.02
2023-04-24T17:08:53.047Z,99766.25
2023-04-24T17:11:26.316Z,99766.45
2023-04-24T17:14:00.939Z,99763.55
2023-04-24T17:16:34.035Z,99772.08
2023-04-24T17:19:08.338Z,99765.27
2023-04-24T17:21:41.512Z,99771.20
2023-04-24T17:24:14.349Z,99767.94
2023-04-24T17:26:47.377Z,99769.36
2023-04-24T17:29:20.322Z,99771.39
2023-04-24T17:31:53.763Z,99773.77
2023-04-24T17:34:26.793Z,99780.23
2023-04-24T17:36:59.935Z,99787.09
2023-04-24T17:39:33.003Z,99789.08
2023-04-24T17:42:06.765Z,99788.42
2023-04-24T17:44:40.025Z,99795.61
2023-04-24T17:47:12.948Z,99798.02
2023-04-24T17:49:46.245Z,99796.09
2023-04-24T17:52:19.328Z,99790.73
2023-04-24T17:54:52.209Z,99788.00
2023-04-24T17:57:25.338Z,99785.33
2023-04-24T17:59:58.215Z,99783.90
2023-04-24T18:02:31.501Z,99789.31
2023-04-24T18:05:04.871Z,99792.71
2023-04-24T18:07:39.529Z,99793.48
2023-04-24T18:10:12.511Z,99789.92
2023-04-24T18:12:45.742Z,99793.27
2023-04-24T18:15:19.083Z,99796.66
2023-04-24T18:17:52.513Z,99797.48
2023-04-24T18:20:26.248Z,99803.71
2023-04-24T18:23:00.146Z,99804.63
2023-04-24T18:25:33.806Z,99802.00
2023-04-24T18:28:07.004Z,99803.17
2023-04-24T18:30:39.917Z,99803.48
2023-04-24T18:33:12.849Z,99809.14
2023-04-24T18:35:45.999Z,99807.31
2023-04-24T18:38:18.836Z,99808.46
2023-04-24T18:40:51.812Z,99808.80
2023-04-24T18:43:24.675Z,99809.60
2023-04-24T18:45:58.133Z,99815.94
2023-04-24T18:48:31.501Z,99824.46
2023-04-24T18:51:04.734Z,99829.20
2023-04-24T18:53:38.614Z,99826.39
2023-04-24T18:56:13.344Z,99829.78
2023-04-24T18:58:46.882Z,99836.41
2023-04-24T19:01:20.362Z,99830.39
2023-04-24T19:03:53.561Z,99835.64
2023-04-24T19:06:26.717Z,99836.59
2023-04-24T19:09:00.166Z,99832.34
2023-04-24T19:11:33.483Z,99838.19
2023-04-24T19:14:07.717Z,99828.52
2023-04-24T19:16:41.831Z,99831.02
2023-04-24T19:19:14.592Z,99817.02
2023-04-24T19:21:47.630Z,99823.58
2023-04-24T19:24:21.530Z,99820.52
2023-04-24T19:26:54.396Z,99823.03
2023-04-24T19:29:27.592Z,99816.78
2023-04-24T19:32:00.421Z,99821.15
2023-04-24T19:34:34.930Z,99815.95
2023-04-24T19:37:08.319Z,99809.34
2023-04-24T19:39:41.581Z,99797.87
2023-04-24T19:42:14.889Z,99794.30
2023-04-24T19:44:48.019Z,99794.30
2023-04-24T19:47:21.033Z,99789.94
2023-04-24T19:49:54.136Z,99796.92
2023-04-24T19:52:28.069Z,99790.37
2023-04-24T19:55:02.065Z,99789.77
2023-04-24T19:57:34.245Z,99779.19
2023-04-24T20:00:08.411Z,99781.89
2023-04-24T20:02:40.440Z,99778.81
2023-04-24T20:05:13.790Z,99769.09
2023-04-24T20:07:46.911Z,99772.52
2023-04-24T20:10:19.860Z,99772.84
2023-04-24T20:12:53.252Z,99772.34
2023-04-24T20:15:26.146Z,99779.66
2023-04-24T20:17:58.938Z,99780.48
2023-04-24T20:20:31.944Z,99778.29
2023-04-24T20:23:04.972Z,99780.42
2023-04-24T20:25:38.711Z,99776.17
2023-04-24T20:28:12.249Z,99776.09
2023-04-24T20:30:45.451Z,99773.02
2023-04-24T20:33:18.485Z,99771.03
2023-04-24T20:35:52.705Z,99775.66
2023-04-24T20:38:26.434Z,99761.91
2023-04-24T20:41:00.437Z,99760.97
2023-04-24T20:43:33.466Z,99759.23
2023-04-24T20:46:07.387Z,99757.98
2023-04-24T20:48:40.374Z,99753.17
2023-04-24T20:51:14.028Z,99753.20
2023-04-24T20:53:48.960Z,99753.05
2023-04-24T20:56:21.860Z,99753.81
2023-04-24T20:58:57.156Z,99745.58
2023-04-24T21:01:30.702Z,99743.69
2023-04-24T21:04:04.355Z,99732.53
2023-04-24T21:06:37.599Z,99727.53
2023-04-24T21:09:10.911Z,99727.59
2023-04-24T21:11:44.044Z,99728.02
2023-04-24T21:14:18.192Z,99723.41
2023-04-24T21:16:51.200Z,99721.92
2023-04-24T21:19:24.374Z,99716.93
2023-04-24T21:21:57.454Z,99715.56
2023-04-24T21:24:30.285Z,99707.18
2023-04-24T21:27:03.774Z,99705.93
2023-04-24T21:29:37.736Z,99699.31
2023-04-24T21:32:10.931Z,99693.53
2023-04-24T21:34:44.240Z,99691.67
2023-04-24T21:37:17.207Z,99685.48
2023-04-24T21:39:49.955Z,99681.61
2023-04-24T21:42:23.257Z,99667.32
2023-04-24T21:44:56.208Z,99669.75
2023-04-24T21:47:29.382Z,99656.33
2023-04-24T21:50:02.405Z,99656.05
2023-04-24T21:52:35.545Z,99649.89
2023-04-24T21:55:09.495Z,99644.59
2023-04-24T21:57:42.601Z,99641.15
2023-04-24T22:00:16.991Z,99645.14
2023-04-24T22:02:49.066Z,99644.71
2023-04-24T22:05:22.693Z,99644.31
2023-04-24T22:07:56.520Z,99649.84
2023-04-24T22:10:29.742Z,99639.18
2023-04-24T22:13:03.077Z,99641.94
2023-04-24T22:15:37.097Z,99643.01
2023-04-24T22:18:11.812Z,99645.05
2023-04-24T22:20:45.108Z,99639.81
2023-04-24T22:23:18.085Z,99634.52
2023-04-24T22:25:51.531Z,99640.27
2023-04-24T22:28:24.860Z,99627.71
2023-04-24T22:30:57.797Z,99625.64
2023-04-24T22:33:30.979Z,99622.53
2023-04-24T22:36:03.955Z,99623.41
2023-04-24T22:38:37.096Z,99621.10
2023-04-24T22:41:10.696Z,99622.05
2023-04-24T22:43:43.742Z,99618.84
2023-04-24T22:46:16.732Z,99612.94
2023-04-24T22:48:50.168Z,99610.89
2023-04-24T22:51:23.193Z,99612.31
2023-04-24T22:53:57.556Z,99607.67
2023-04-24T22:56:31.832Z,99604.25
2023-04-24T22:59:05.133Z,99594.80
2023-04-24T23:01:38.269Z,99597.55
2023-04-24T23:04:11.361Z,99602.45
2023-04-24T23:06:45.059Z,99594.22
2023-04-24T23:09:18.215Z,99587.28
2023-04-24T23:11:51.549Z,99586.95
2023-04-24T23:14:25.117Z,99584.38
2023-04-24T23:16:58.791Z,99582.64
2023-04-24T23:19:31.852Z,99579.30
2023-04-24T23:22:04.881Z,99576.25
2023-04-24T23:24:39.558Z,99577.93
2023-04-24T23:27:12.474Z,99576.91
2023-04-24T23:29:46.117Z,99571.21
2023-04-24T23:32:18.997Z,99573.83
2023-04-24T23:34:52.044Z,99556.68
2023-04-24T23:37:25.095Z,99562.80
2023-04-24T23:39:58.144Z,99568.37
2023-04-24T23:42:31.462Z,99560.84
2023-04-24T23:45:05.053Z,99560.84
2023-04-24T23:47:39.506Z,99558.70
2023-04-24T23:50:13.088Z,99553.09
2023-04-24T23:52:46.100Z,99554.88
2023-04-24T23:55:19.068Z,99550.95
2023-04-24T23:57:51.855Z,99549.75
